Time;durP1;ratioP1;P1;durP2;ratioP2;P2;SDS_P1;SDS_P2;PMS_P1;PMS_P2;Temp;Humidity;BMP_temperature;BMP_pressure;BME280_temperature;BME280_humidity;BME280_pressure;Samples;Min_cycle;Max_cycle;Signal;HPM_P1;HPM_P2
2022/02/28 12:19:32;;;;;;;16.90;9.18;;;19.80;99.90;;;;;;5065119;28;20067;-68
2022/02/28 12:22:00;;;;;;;22.47;10.53;;;19.90;99.90;;;;;;5061021;28;20028;-69
2022/02/28 12:24:55;;;;;;;19.88;11.18;;;20.00;99.90;;;;;;5063338;28;20078;-65
2022/02/28 12:27:32;;;;;;;19.27;15.05;;;20.10;99.90;;;;;;5062915;28;20036;-68
2022/02/28 12:29:59;;;;;;;19.52;17.25;;;20.10;99.90;;;;;;5062008;28;20032;-66
2022/02/28 12:32:49;;;;;;;27.75;22.10;;;20.10;99.90;;;;;;5062712;28;20020;-66
2022/02/28 12:35:19;;;;;;;68.35;61.00;;;20.10;99.90;;;;;;5060544;28;20042;-64
2022/02/28 12:37:47;;;;;;;65.63;58.70;;;20.20;99.90;;;;;;5059531;28;20024;-66
2022/02/28 12:40:14;;;;;;;52.67;45.10;;;20.20;99.90;;;;;;5063058;28;20061;-68
2022/02/28 12:42:41;;;;;;;52.78;47.08;;;20.10;99.90;;;;;;5061300;28;20021;-67
2022/02/28 12:45:08;;;;;;;48.05;36.45;;;20.10;99.90;;;;;;5061845;28;20094;-65
2022/02/28 12:47:35;;;;;;;32.80;25.92;;;20.00;99.90;;;;;;4711678;27;9999692;-65
2022/02/28 12:50:09;;;;;;;25.30;17.65;;;20.10;99.90;;;;;;5067168;28;20101;-63
2022/02/28 12:52:36;;;;;;;23.35;11.93;;;20.00;99.90;;;;;;5066063;28;20024;-65
2022/02/28 12:55:04;;;;;;;26.23;14.50;;;20.00;99.90;;;;;;5067312;28;20254;-66
2022/02/28 12:57:36;;;;;;;20.85;10.68;;;20.10;99.90;;;;;;5065641;28;20024;-65
2022/02/28 13:00:04;;;;;;;15.35;7.82;;;20.00;99.90;;;;;;5066003;28;20028;-65
2022/02/28 13:02:33;;;;;;;18.23;8.40;;;20.10;99.90;;;;;;5060330;28;20028;-66
2022/02/28 13:05:00;;;;;;;19.05;7.63;;;20.10;99.90;;;;;;5067746;28;20048;-66
2022/02/28 13:07:28;;;;;;;15.68;7.20;;;20.10;99.90;;;;;;5064385;28;20036;-69
2022/02/28 13:09:55;;;;;;;15.70;6.90;;;20.10;99.90;;;;;;5066729;28;20036;-66
2022/02/28 13:12:30;;;;;;;19.45;7.07;;;20.10;99.90;;;;;;5065290;28;20029;-67
2022/02/28 13:14:58;;;;;;;10.88;6.35;;;20.10;99.90;;;;;;5066096;28;20041;-66
2022/02/28 13:17:27;;;;;;;14.80;6.55;;;20.10;99.90;;;;;;5057704;28;20191;-64
2022/02/28 13:19:56;;;;;;;14.13;6.60;;;20.20;99.90;;;;;;5066628;28;20506;-67
2022/02/28 13:22:24;;;;;;;12.95;5.53;;;20.20;99.90;;;;;;5061013;28;20040;-67
2022/02/28 13:24:52;;;;;;;11.30;5.13;;;20.30;99.90;;;;;;5062398;28;20081;-63
2022/02/28 13:27:19;;;;;;;10.65;4.90;;;20.20;99.90;;;;;;5053707;28;20036;-67
2022/02/28 13:29:47;;;;;;;16.95;4.60;;;20.30;99.90;;;;;;5049608;28;20025;-63
2022/02/28 13:32:16;;;;;;;8.00;4.20;;;20.30;99.90;;;;;;5049343;28;20056;-63
2022/02/28 13:34:44;;;;;;;7.88;3.88;;;20.30;99.90;;;;;;5051291;28;20039;-63
2022/02/28 13:37:23;;;;;;;12.13;3.63;;;20.20;99.90;;;;;;5053213;28;20552;-65
2022/02/28 13:39:56;;;;;;;10.27;4.20;;;20.20;99.90;;;;;;5047997;28;20449;-63
2022/02/28 13:42:26;;;;;;;11.13;4.93;;;20.10;99.90;;;;;;5053483;28;20020;-64
2022/02/28 13:45:19;;;;;;;12.63;4.25;;;20.10;99.90;;;;;;5050419;28;20032;-69
2022/02/28 13:47:46;;;;;;;14.20;3.83;;;20.20;99.90;;;;;;5050445;28;20120;-62
2022/02/28 13:50:13;;;;;;;16.20;5.43;;;20.20;99.90;;;;;;5053048;28;20037;-64
2022/02/28 13:52:41;;;;;;;13.45;4.30;;;20.30;99.90;;;;;;5051172;28;20031;-67
2022/02/28 13:55:18;;;;;;;9.73;4.10;;;20.30;99.90;;;;;;5062885;28;20068;-64
2022/02/28 13:57:59;;;;;;;9.48;3.47;;;20.30;99.90;;;;;;5050819;28;20029;-69
2022/02/28 14:00:28;;;;;;;9.98;3.67;;;20.30;99.90;;;;;;5051328;28;20078;-66
2022/02/28 14:03:17;;;;;;;9.63;3.33;;;20.30;99.90;;;;;;5045976;28;20035;-69
2022/02/28 14:05:49;;;;;;;13.02;3.60;;;20.30;99.90;;;;;;5056129;28;20032;-63
2022/02/28 14:08:22;;;;;;;10.43;3.72;;;20.30;99.90;;;;;;5049404;28;20032;-68
2022/02/28 14:11:08;;;;;;;9.73;4.22;;;20.30;99.90;;;;;;5054423;28;20044;-63
2022/02/28 14:13:41;;;;;;;10.80;5.00;;;20.20;99.90;;;;;;5048589;28;20169;-63
2022/02/28 14:16:17;;;;;;;;;;;20.20;99.90;;;;;;5052516;28;20519;-63
2022/02/28 14:19:15;;;;;;;10.15;5.30;;;20.20;99.90;;;;;;5053908;28;19923;-68
2022/02/28 14:22:00;;;;;;;9.55;4.85;;;20.20;99.90;;;;;;5056174;28;20053;-64
2022/02/28 14:24:27;;;;;;;10.85;5.20;;;20.10;99.90;;;;;;5044614;28;20055;-64
2022/02/28 14:26:57;;;;;;;25.75;6.95;;;20.10;99.90;;;;;;5052241;28;20557;-64
2022/02/28 14:29:25;;;;;;;11.43;4.88;;;20.00;99.90;;;;;;5049984;28;20112;-64
2022/02/28 14:31:54;;;;;;;13.38;5.95;;;20.00;99.90;;;;;;5049350;28;20112;-63
2022/02/28 14:34:21;;;;;;;13.57;5.65;;;19.90;99.90;;;;;;5054092;28;20099;-68
2022/02/28 14:36:49;;;;;;;12.70;5.55;;;19.90;99.90;;;;;;5054552;28;20446;-66
2022/02/28 14:39:19;;;;;;;12.23;5.57;;;19.80;99.90;;;;;;5048842;28;20036;-66
2022/02/28 14:41:47;;;;;;;12.60;6.22;;;19.80;99.90;;;;;;5048552;28;20052;-68
2022/02/28 14:44:15;;;;;;;9.52;5.97;;;19.80;99.90;;;;;;5047515;28;20104;-66
2022/02/28 14:46:44;;;;;;;12.48;6.13;;;19.80;99.90;;;;;;5048470;28;20869;-63
2022/02/28 14:49:11;;;;;;;13.70;6.82;;;19.80;99.90;;;;;;5051833;28;20549;-65
2022/02/28 14:51:40;;;;;;;16.40;6.20;;;19.80;99.90;;;;;;5050203;28;20048;-68
2022/02/28 14:54:07;;;;;;;11.02;5.90;;;19.80;99.90;;;;;;5056762;28;20146;-65
2022/02/28 14:56:34;;;;;;;19.67;6.57;;;19.80;99.90;;;;;;5051921;28;20139;-63
2022/02/28 14:59:01;;;;;;;14.55;6.32;;;19.80;99.90;;;;;;5051298;28;20042;-64
2022/02/28 15:01:29;;;;;;;9.35;5.53;;;19.70;99.90;;;;;;5050031;28;20020;-67
2022/02/28 15:03:56;;;;;;;10.27;5.05;;;19.70;99.90;;;;;;5055123;28;20029;-66
2022/02/28 15:06:23;;;;;;;15.73;5.15;;;19.70;99.90;;;;;;5054233;28;20044;-67
2022/02/28 15:08:50;;;;;;;11.23;5.03;;;19.70;99.90;;;;;;5051462;28;20053;-68
2022/02/28 15:11:17;;;;;;;7.18;4.78;;;19.60;99.90;;;;;;5049746;28;20047;-65
2022/02/28 15:13:44;;;;;;;12.73;5.20;;;19.70;99.90;;;;;;5046818;28;20037;-63
2022/02/28 15:16:11;;;;;;;15.82;5.32;;;19.70;99.90;;;;;;5047637;28;20522;-67
2022/02/28 15:18:38;;;;;;;14.73;5.00;;;19.70;99.90;;;;;;5053837;28;20409;-63
2022/02/28 15:21:05;;;;;;;14.07;5.60;;;19.60;99.90;;;;;;5052344;28;20020;-63
2022/02/28 15:23:32;;;;;;;13.82;4.82;;;19.60;99.90;;;;;;5046898;28;20098;-63
2022/02/28 15:25:59;;;;;;;16.08;4.65;;;19.60;99.90;;;;;;5042711;28;20017;-63
2022/02/28 15:28:26;;;;;;;10.82;4.47;;;19.60;99.90;;;;;;5051084;28;20445;-66
2022/02/28 15:30:52;;;;;;;14.40;5.32;;;19.60;99.90;;;;;;5053037;28;20029;-64
2022/02/28 15:33:20;;;;;;;7.97;4.40;;;19.60;99.90;;;;;;5047831;28;20035;-69
2022/02/28 15:35:47;;;;;;;13.15;5.05;;;19.60;99.90;;;;;;5048553;28;20075;-64
2022/02/28 15:38:15;;;;;;;14.63;5.68;;;19.60;99.90;;;;;;5047845;28;20426;-63
2022/02/28 15:40:42;;;;;;;14.07;5.75;;;19.60;99.90;;;;;;5048936;28;20059;-69
2022/02/28 15:43:09;;;;;;;11.32;6.13;;;19.80;99.90;;;;;;5046958;28;20574;-66
2022/02/28 15:45:36;;;;;;;9.52;5.32;;;19.80;99.90;;;;;;5049028;28;20075;-63
2022/02/28 15:48:04;;;;;;;10.32;5.35;;;19.90;99.90;;;;;;5048935;28;20039;-69
2022/02/28 15:50:32;;;;;;;12.13;6.05;;;19.90;99.90;;;;;;5041572;28;20028;-65
2022/02/28 15:53:00;;;;;;;14.65;6.28;;;19.90;99.90;;;;;;5046362;28;20044;-63
2022/02/28 15:55:28;;;;;;;7.80;5.25;;;19.80;99.90;;;;;;5045561;28;20474;-69
2022/02/28 15:57:56;;;;;;;16.83;5.00;;;19.70;99.90;;;;;;5044024;28;20629;-66
2022/02/28 16:00:26;;;;;;;10.85;4.40;;;19.70;99.90;;;;;;5048679;28;20017;-65
2022/02/28 16:02:55;;;;;;;12.02;5.13;;;19.60;99.90;;;;;;5051616;28;20145;-69
2022/02/28 16:05:23;;;;;;;13.25;7.00;;;19.60;99.90;;;;;;5039069;28;20029;-63
2022/02/28 16:07:50;;;;;;;12.88;6.65;;;19.70;99.90;;;;;;5047933;28;20025;-65
2022/02/28 16:10:18;;;;;;;16.88;7.85;;;19.60;99.90;;;;;;5047857;28;20034;-65
2022/02/28 16:12:46;;;;;;;15.10;6.53;;;19.60;99.90;;;;;;5047522;28;20100;-63
2022/02/28 16:15:15;;;;;;;13.50;6.55;;;19.70;99.90;;;;;;5048391;28;20040;-63
2022/02/28 16:17:43;;;;;;;14.43;6.57;;;19.60;99.90;;;;;;5045542;28;20112;-69
2022/02/28 16:20:11;;;;;;;16.52;6.40;;;19.50;99.90;;;;;;5050546;28;20691;-65
2022/02/28 16:22:38;;;;;;;10.43;5.63;;;19.50;99.90;;;;;;5052282;28;20025;-63
2022/02/28 16:25:15;;;;;;;12.10;5.22;;;19.50;99.90;;;;;;5042332;28;20080;-66
2022/02/28 16:27:43;;;;;;;9.13;4.68;;;19.50;99.90;;;;;;5048317;28;20039;-66
2022/02/28 16:30:12;;;;;;;12.80;7.22;;;19.40;99.90;;;;;;5046673;28;20039;-64
2022/02/28 16:32:39;;;;;;;21.48;7.15;;;19.50;99.90;;;;;;5048934;28;20414;-65
2022/02/28 16:35:08;;;;;;;16.00;6.97;;;19.50;99.90;;;;;;5047954;28;20032;-65
2022/02/28 16:37:38;;;;;;;16.38;5.22;;;19.50;99.90;;;;;;5048277;28;20021;-64
2022/02/28 16:40:07;;;;;;;8.60;4.43;;;19.50;99.90;;;;;;5047804;28;20447;-65
2022/02/28 16:42:34;;;;;;;12.70;5.07;;;19.40;99.90;;;;;;5044672;28;20099;-63
2022/02/28 16:45:01;;;;;;;14.20;4.32;;;19.40;99.90;;;;;;5047977;28;20034;-65
2022/02/28 16:47:29;;;;;;;8.15;3.45;;;19.40;99.90;;;;;;5049481;28;20426;-68
2022/02/28 16:49:59;;;;;;;10.38;4.45;;;19.40;99.90;;;;;;5048208;28;20112;-65
2022/02/28 16:52:27;;;;;;;10.57;4.80;;;19.30;99.90;;;;;;5048641;28;20491;-64
2022/02/28 16:54:54;;;;;;;10.70;4.65;;;19.30;99.90;;;;;;5048188;28;20551;-65
2022/02/28 16:57:21;;;;;;;13.40;4.55;;;19.40;99.90;;;;;;5047829;28;20419;-63
2022/02/28 16:59:48;;;;;;;15.25;5.25;;;19.40;99.90;;;;;;5047880;28;20120;-63
2022/02/28 17:02:15;;;;;;;9.18;4.13;;;19.40;99.90;;;;;;5043814;28;20108;-68
2022/02/28 17:04:42;;;;;;;7.85;3.78;;;19.50;99.90;;;;;;5048856;28;20100;-67
2022/02/28 17:07:09;;;;;;;10.90;4.35;;;19.50;99.90;;;;;;5052321;28;20029;-65
2022/02/28 17:09:36;;;;;;;8.50;5.00;;;19.60;99.90;;;;;;5049200;28;20047;-64
2022/02/28 17:12:07;;;;;;;6.90;4.65;;;19.60;99.90;;;;;;5052244;28;20035;-64
2022/02/28 17:14:34;;;;;;;7.25;4.05;;;19.60;99.90;;;;;;5051334;28;20049;-65
2022/02/28 17:17:01;;;;;;;7.95;3.92;;;19.60;99.90;;;;;;5049977;28;20032;-65
2022/02/28 17:19:28;;;;;;;9.45;4.68;;;19.50;99.90;;;;;;5051702;28;20028;-64
2022/02/28 17:21:55;;;;;;;10.27;4.75;;;19.50;99.90;;;;;;5046426;28;20044;-66
2022/02/28 17:24:21;;;;;;;10.73;4.82;;;19.50;99.90;;;;;;5051591;28;20118;-63
2022/02/28 17:26:48;;;;;;;15.60;5.15;;;19.60;99.90;;;;;;5045041;28;20021;-65
2022/02/28 17:29:15;;;;;;;10.55;4.90;;;19.60;99.90;;;;;;5045851;28;20025;-63
2022/02/28 17:31:43;;;;;;;10.15;4.50;;;19.70;99.90;;;;;;5051514;28;20029;-68
2022/02/28 17:34:13;;;;;;;11.38;4.70;;;19.70;99.90;;;;;;5051365;28;20021;-66
2022/02/28 17:36:40;;;;;;;9.05;4.32;;;19.70;99.90;;;;;;5051266;28;20804;-62
2022/02/28 17:39:07;;;;;;;8.90;3.78;;;19.70;99.90;;;;;;5051029;28;20218;-62
2022/02/28 17:41:34;;;;;;;9.85;4.50;;;19.70;99.90;;;;;;5051348;28;20127;-62
2022/02/28 17:44:01;;;;;;;8.73;4.20;;;19.70;99.90;;;;;;5054207;28;20025;-66
2022/02/28 17:46:28;;;;;;;8.80;3.90;;;19.60;99.90;;;;;;5048721;28;20012;-65
2022/02/28 17:48:56;;;;;;;8.82;3.58;;;19.60;99.90;;;;;;5050726;28;20107;-67
2022/02/28 17:51:23;;;;;;;11.20;4.18;;;19.60;99.90;;;;;;5048343;28;20432;-64
2022/02/28 17:53:57;;;;;;;17.75;4.88;;;19.60;99.90;;;;;;5050494;28;20508;-68
2022/02/28 17:56:25;;;;;;;10.38;4.45;;;19.50;99.90;;;;;;5051300;28;20025;-68
2022/02/28 17:58:53;;;;;;;15.40;6.78;;;19.60;99.90;;;;;;5050989;28;20507;-64
2022/02/28 18:01:20;;;;;;;16.33;10.55;;;19.50;99.90;;;;;;5043361;28;20029;-68
2022/02/28 18:03:47;;;;;;;16.33;10.85;;;19.60;99.90;;;;;;5049724;28;20032;-65
2022/02/28 18:06:14;;;;;;;14.32;10.70;;;19.60;99.90;;;;;;5045738;28;20423;-64
2022/02/28 18:08:42;;;;;;;17.00;8.10;;;19.70;99.90;;;;;;5051021;28;20032;-62
2022/02/28 18:11:09;;;;;;;10.68;4.25;;;19.70;99.90;;;;;;5049415;28;20479;-64
2022/02/28 18:13:39;;;;;;;11.73;3.95;;;19.80;99.90;;;;;;5050961;28;20033;-62
2022/02/28 18:16:07;;;;;;;9.70;2.50;;;19.80;99.90;;;;;;5047998;28;20060;-63
2022/02/28 18:18:35;;;;;;;8.63;2.78;;;19.90;99.90;;;;;;5044011;28;20390;-68
2022/02/28 18:21:02;;;;;;;6.95;2.72;;;19.90;99.90;;;;;;5049629;28;20029;-63
2022/02/28 18:23:29;;;;;;;9.90;2.33;;;19.90;99.90;;;;;;5048568;28;20028;-61
2022/02/28 18:25:57;;;;;;;5.88;2.20;;;19.90;99.90;;;;;;5050340;28;20028;-65
2022/02/28 18:28:24;;;;;;;6.57;2.53;;;19.90;99.90;;;;;;5048681;28;20426;-63
2022/02/28 18:30:51;;;;;;;10.57;2.92;;;19.90;99.90;;;;;;5047945;28;20029;-65
2022/02/28 18:33:17;;;;;;;9.27;2.30;;;19.80;99.90;;;;;;5050289;28;20021;-63
2022/02/28 18:35:44;;;;;;;9.00;2.70;;;19.80;99.90;;;;;;5048108;28;20073;-64
2022/02/28 18:38:13;;;;;;;7.78;2.53;;;19.80;99.90;;;;;;5048612;28;20033;-67
2022/02/28 18:40:41;;;;;;;9.70;2.90;;;19.70;99.90;;;;;;5046223;28;20049;-64
2022/02/28 18:43:11;;;;;;;6.53;2.22;;;19.80;99.90;;;;;;5048810;28;20029;-64
2022/02/28 18:45:38;;;;;;;6.85;2.30;;;19.70;99.90;;;;;;5050813;28;20032;-68
2022/02/28 18:48:06;;;;;;;5.95;2.40;;;19.70;99.90;;;;;;5047950;28;20021;-67
2022/02/28 18:50:33;;;;;;;6.55;2.70;;;19.60;99.90;;;;;;5055558;28;20099;-64
2022/02/28 18:53:01;;;;;;;9.13;2.53;;;19.60;99.90;;;;;;5049542;28;20025;-68
2022/02/28 18:55:29;;;;;;;12.15;4.60;;;19.60;99.90;;;;;;5047423;28;20039;-64
2022/02/28 18:57:56;;;;;;;12.30;5.60;;;19.70;99.90;;;;;;5045654;28;20022;-62
2022/02/28 19:00:25;;;;;;;14.35;8.90;;;19.70;99.90;;;;;;5048328;28;20021;-64
2022/02/28 19:02:53;;;;;;;15.10;9.52;;;19.70;99.90;;;;;;5047367;28;20388;-65
2022/02/28 19:05:22;;;;;;;14.90;8.25;;;19.70;99.90;;;;;;5049997;28;20063;-70
2022/02/28 19:07:50;;;;;;;14.80;8.20;;;19.80;99.90;;;;;;5047225;28;20037;-63
2022/02/28 19:10:21;;;;;;;15.57;8.02;;;19.80;99.90;;;;;;5047859;28;20582;-69
2022/02/28 19:12:50;;;;;;;15.60;5.78;;;19.90;99.90;;;;;;5042295;28;20032;-66
2022/02/28 19:15:17;;;;;;;10.55;3.70;;;19.90;99.90;;;;;;5044396;28;20596;-66
2022/02/28 19:17:44;;;;;;;12.65;5.70;;;19.90;99.90;;;;;;5044480;28;20035;-66
2022/02/28 19:20:12;;;;;;;8.73;2.70;;;20.00;99.90;;;;;;5047176;28;20025;-67
2022/02/28 19:22:42;;;;;;;17.08;11.27;;;20.00;99.90;;;;;;5046747;28;20031;-62
2022/02/28 19:25:13;;;;;;;13.05;5.50;;;20.00;99.90;;;;;;5047881;28;20040;-67
2022/02/28 19:27:42;;;;;;;6.60;2.50;;;20.00;99.90;;;;;;5047363;28;20028;-67
2022/02/28 19:30:11;;;;;;;7.70;2.22;;;20.00;99.90;;;;;;5047233;28;20025;-67
2022/02/28 19:32:38;;;;;;;7.75;1.70;;;20.10;99.90;;;;;;5048792;28;20391;-67
2022/02/28 19:35:06;;;;;;;4.25;1.80;;;20.20;99.90;;;;;;5047159;28;20036;-63
2022/02/28 19:37:33;;;;;;;6.53;2.38;;;20.10;99.90;;;;;;5047316;28;20225;-69
2022/02/28 19:40:03;;;;;;;6.32;2.13;;;20.20;99.90;;;;;;5048630;28;20057;-67
2022/02/28 19:42:30;;;;;;;6.07;1.88;;;20.10;99.90;;;;;;5047162;28;20132;-65
2022/02/28 19:44:57;;;;;;;8.60;1.98;;;20.10;99.90;;;;;;5046121;28;20384;-65
2022/02/28 19:47:24;;;;;;;8.75;2.28;;;20.10;99.90;;;;;;5048416;28;20550;-69
2022/02/28 19:49:51;;;;;;;3.58;1.90;;;20.10;99.90;;;;;;5041531;28;20507;-67
2022/02/28 19:52:18;;;;;;;6.43;3.33;;;20.20;99.90;;;;;;5044560;28;20134;-68
2022/02/28 19:54:45;;;;;;;12.30;6.68;;;20.10;99.90;;;;;;5046734;28;20021;-66
2022/02/28 19:57:13;;;;;;;6.57;2.38;;;20.10;99.90;;;;;;5047527;28;20445;-65
2022/02/28 19:59:40;;;;;;;7.15;2.38;;;20.20;99.90;;;;;;5045173;28;20025;-68
2022/02/28 20:02:07;;;;;;;5.38;2.40;;;20.20;99.90;;;;;;5045551;28;20021;-64
2022/02/28 20:04:34;;;;;;;5.30;1.90;;;20.10;99.90;;;;;;5045126;28;20889;-65
2022/02/28 20:07:01;;;;;;;5.22;1.65;;;20.10;99.90;;;;;;5047391;28;20064;-68
2022/02/28 20:09:28;;;;;;;3.10;1.60;;;20.10;99.90;;;;;;5046119;28;20040;-63
2022/02/28 20:11:55;;;;;;;3.60;1.15;;;20.10;99.90;;;;;;5040956;28;20037;-63
2022/02/28 20:14:23;;;;;;;5.93;3.13;;;20.10;99.90;;;;;;5043925;28;20089;-63
2022/02/28 20:16:50;;;;;;;4.05;1.85;;;20.20;99.90;;;;;;5044364;28;20025;-68
2022/02/28 20:19:17;;;;;;;5.22;2.17;;;20.20;99.90;;;;;;5045659;28;20025;-63
2022/02/28 20:21:44;;;;;;;9.10;4.97;;;20.20;99.90;;;;;;5048007;28;20060;-63
2022/02/28 20:24:11;;;;;;;2.70;1.27;;;20.10;99.90;;;;;;5043312;28;20020;-65
2022/02/28 20:26:38;;;;;;;6.32;3.97;;;20.20;99.90;;;;;;5052212;28;20137;-64
2022/02/28 20:29:06;;;;;;;11.23;6.70;;;20.20;99.90;;;;;;5050350;28;20021;-64
2022/02/28 20:31:33;;;;;;;4.28;1.85;;;20.20;99.90;;;;;;5045365;28;20061;-70
2022/02/28 20:34:00;;;;;;;3.15;1.27;;;20.30;99.90;;;;;;5047865;28;20348;-73
2022/02/28 20:36:27;;;;;;;10.05;5.70;;;20.20;99.90;;;;;;5045169;28;20418;-64
2022/02/28 20:38:54;;;;;;;11.05;7.38;;;20.10;99.90;;;;;;5051542;28;20025;-73
2022/02/28 20:41:22;;;;;;;6.38;2.63;;;20.20;99.90;;;;;;5050668;28;20071;-74
2022/02/28 20:43:50;;;;;;;6.22;3.55;;;20.20;99.90;;;;;;5051691;28;20028;-67
2022/02/28 20:46:18;;;;;;;5.43;1.77;;;20.20;99.90;;;;;;5051196;28;20491;-67
2022/02/28 20:48:48;;;;;;;3.72;2.05;;;20.20;99.90;;;;;;5052208;28;20024;-66
2022/02/28 20:51:18;;;;;;;10.57;5.60;;;20.30;99.90;;;;;;5045845;28;20028;-72
2022/02/28 20:53:51;;;;;;;3.58;1.63;;;20.30;99.90;;;;;;5051050;28;20033;-68
2022/02/28 20:56:23;;;;;;;7.78;3.42;;;20.40;99.90;;;;;;5045805;28;20124;-66
2022/02/28 20:58:51;;;;;;;6.50;4.32;;;20.40;99.90;;;;;;5049114;28;20021;-69
2022/02/28 21:01:21;;;;;;;4.00;1.95;;;20.40;99.90;;;;;;5049840;28;20079;-67
2022/02/28 21:03:49;;;;;;;2.45;0.85;;;20.50;99.90;;;;;;5047886;28;20120;-68
2022/02/28 21:06:17;;;;;;;4.05;1.02;;;20.50;99.90;;;;;;5047278;28;20059;-69
2022/02/28 21:08:44;;;;;;;2.33;1.10;;;20.70;99.90;;;;;;5052141;28;20024;-69
2022/02/28 21:11:11;;;;;;;4.30;1.27;;;20.80;99.90;;;;;;5043866;28;20037;-67
2022/02/28 21:13:39;;;;;;;5.40;1.40;;;21.00;99.90;;;;;;5050036;28;20037;-68
2022/02/28 21:16:06;;;;;;;2.50;1.20;;;21.10;99.90;;;;;;5050061;28;20036;-67
2022/02/28 21:18:33;;;;;;;4.35;1.20;;;21.30;99.90;;;;;;5052780;28;20039;-67
2022/02/28 21:21:00;;;;;;;3.00;1.20;;;21.40;99.90;;;;;;5050023;28;20047;-68
2022/02/28 21:23:28;;;;;;;2.22;0.80;;;21.50;99.90;;;;;;5052332;28;20025;-69
2022/02/28 21:25:56;;;;;;;2.88;1.15;;;21.70;99.90;;;;;;5043907;28;20071;-66
2022/02/28 21:28:23;;;;;;;3.25;1.05;;;21.80;99.90;;;;;;5047139;28;20040;-69
2022/02/28 21:30:50;;;;;;;2.63;1.13;;;22.20;99.90;;;;;;5058085;28;20033;-66
2022/02/28 21:33:17;;;;;;;4.32;1.02;;;22.40;99.90;;;;;;5051573;28;20025;-67
2022/02/28 21:35:44;;;;;;;4.78;1.35;;;22.60;99.90;;;;;;5048441;28;20024;-68
2022/02/28 21:38:11;;;;;;;4.28;1.40;;;22.70;99.90;;;;;;5047511;28;20285;-67
2022/02/28 21:40:38;;;;;;;1.70;1.05;;;22.90;99.90;;;;;;5053840;28;20058;-67
2022/02/28 21:43:05;;;;;;;8.05;2.38;;;23.10;99.90;;;;;;5051280;28;20021;-66
2022/02/28 21:45:35;;;;;;;4.53;1.70;;;23.20;99.90;;;;;;5045275;28;20036;-67
2022/02/28 21:48:03;;;;;;;6.45;2.40;;;23.10;99.90;;;;;;5055623;28;20067;-68
2022/02/28 21:50:31;;;;;;;6.60;2.30;;;23.00;99.90;;;;;;5054085;28;20020;-68
2022/02/28 21:52:58;;;;;;;7.05;4.07;;;22.70;99.90;;;;;;5048445;28;20024;-67
2022/02/28 21:55:25;;;;;;;7.88;5.05;;;22.60;99.90;;;;;;5052132;28;20089;-67
2022/02/28 21:57:53;;;;;;;12.27;6.20;;;22.40;99.90;;;;;;5048747;28;20063;-67
2022/02/28 22:00:20;;;;;;;10.52;7.70;;;22.30;99.90;;;;;;5044074;28;20067;-67
2022/02/28 22:02:47;;;;;;;10.38;5.13;;;22.20;99.90;;;;;;5051003;28;20032;-67
2022/02/28 22:05:14;;;;;;;4.97;1.90;;;22.00;99.90;;;;;;5045840;28;20045;-67
2022/02/28 22:07:42;;;;;;;6.80;1.77;;;21.90;99.90;;;;;;5057540;28;20419;-66
2022/02/28 22:10:10;;;;;;;5.00;1.73;;;21.60;99.90;;;;;;5054140;28;20479;-69
2022/02/28 22:12:40;;;;;;;7.40;3.40;;;21.40;99.90;;;;;;5052564;28;20029;-68
2022/02/28 22:15:08;;;;;;;5.40;1.80;;;21.30;99.90;;;;;;5039009;28;20041;-68
2022/02/28 22:17:35;;;;;;;3.60;1.58;;;21.30;99.90;;;;;;5044159;28;20029;-71
2022/02/28 22:20:07;;;;;;;4.70;1.98;;;21.30;99.90;;;;;;5041018;28;20032;-69
2022/02/28 22:22:34;;;;;;;3.13;1.10;;;21.30;99.90;;;;;;5051759;28;20513;-68
2022/02/28 22:25:01;;;;;;;2.63;1.00;;;21.30;99.90;;;;;;5042514;28;20515;-67
2022/02/28 22:27:28;;;;;;;2.22;0.90;;;21.20;99.90;;;;;;5054653;28;20451;-67
2022/02/28 22:29:55;;;;;;;2.78;0.80;;;21.10;99.90;;;;;;5052809;28;20623;-68
2022/02/28 22:32:22;;;;;;;6.05;1.00;;;21.10;99.90;;;;;;5045720;28;20029;-67
2022/02/28 22:34:49;;;;;;;4.25;2.17;;;21.10;99.90;;;;;;5044598;28;20033;-70
2022/02/28 22:37:25;;;;;;;3.30;1.00;;;21.30;99.90;;;;;;5071048;22;20069;-69
2022/02/28 22:40:00;;;;;;;3.65;1.25;;;21.30;99.90;;;;;;5034230;28;20029;-71
2022/02/28 22:42:29;;;;;;;4.20;1.60;;;21.50;99.90;;;;;;5035855;28;20039;-73
2022/02/28 22:44:56;;;;;;;3.30;1.17;;;21.60;99.90;;;;;;5031004;28;20025;-72
2022/02/28 22:47:23;;;;;;;1.95;0.82;;;21.80;99.90;;;;;;5028266;28;20351;-70
2022/02/28 22:49:51;;;;;;;3.00;1.45;;;21.90;99.90;;;;;;5029543;28;20037;-68
2022/02/28 22:52:18;;;;;;;3.53;1.23;;;22.00;99.90;;;;;;5033182;28;20079;-72
2022/02/28 22:54:45;;;;;;;6.18;1.17;;;22.20;99.90;;;;;;5031990;28;20132;-68
2022/02/28 22:57:13;;;;;;;5.35;1.45;;;22.30;99.90;;;;;;5026695;28;20365;-72
2022/02/28 22:59:41;;;;;;;6.10;1.30;;;22.30;99.90;;;;;;5028739;28;20021;-72
2022/02/28 23:04:15;;;;;;;7.30;1.60;;;22.40;99.90;;;;;;5019725;28;20049;-72
2022/02/28 23:04:54;;;;;;;4.38;1.40;;;22.40;99.90;;;;;;5006333;28;20038;-67
2022/02/28 23:07:21;;;;;;;5.32;1.77;;;22.50;99.90;;;;;;5006851;28;20025;-67
2022/02/28 23:20:49;;;;;;;7.00;2.05;;;23.30;99.90;;;;;;5006983;28;20056;-69
2022/02/28 23:23:16;;;;;;;3.22;1.98;;;23.30;99.90;;;;;;5007407;28;20034;-77
2022/02/28 23:25:44;;;;;;;8.88;4.50;;;23.30;99.90;;;;;;5007005;28;20145;-74
2022/02/28 23:28:12;;;;;;;6.07;2.00;;;23.60;99.90;;;;;;5005350;28;20033;-75
2022/02/28 23:30:39;;;;;;;6.35;1.33;;;23.80;99.90;;;;;;5006845;28;20029;-74
2022/02/28 23:33:07;;;;;;;5.15;1.52;;;23.90;99.90;;;;;;5005209;28;20476;-68
2022/02/28 23:35:34;;;;;;;3.55;1.40;;;24.10;99.90;;;;;;5005139;28;20181;-74
2022/02/28 23:38:01;;;;;;;5.90;1.67;;;23.90;99.90;;;;;;5007351;28;20397;-75
2022/02/28 23:40:28;;;;;;;5.57;2.25;;;23.50;99.90;;;;;;5003400;28;20396;-66
2022/02/28 23:42:56;;;;;;;6.20;1.60;;;23.30;99.90;;;;;;5004048;28;20018;-67
2022/02/28 23:45:23;;;;;;;9.52;2.28;;;23.20;99.90;;;;;;5007205;28;20144;-67
2022/02/28 23:47:49;;;;;;;6.93;2.30;;;23.00;99.90;;;;;;5005239;28;20029;-70
2022/02/28 23:50:16;;;;;;;6.97;1.73;;;22.80;99.90;;;;;;5005257;28;20022;-65
2022/02/28 23:52:44;;;;;;;3.35;0.88;;;22.50;99.90;;;;;;5007083;28;20034;-66
2022/02/28 23:55:10;;;;;;;2.85;1.00;;;22.20;99.90;;;;;;5006309;28;20038;-65
2022/02/28 23:57:37;;;;;;;3.50;1.00;;;22.10;99.90;;;;;;5006342;28;20026;-66
